LFAT

Le Touquet-Côte d'Opale Airport

Le Touquet-Paris-Plage, France
METAR LFAT 172030Z AUTO 23001KT CAVOK 11/10 Q1022
Observed Flight Rules
Oct-17 @ 20:30 UTC (20 minutes ago) Visual Flight Rules
Wind Visibility Clouds
230° at 1 knots 10,000+ meters
  • Clear skies
Temperatures Readings
Current 11°C / 52°F
Dewpoint 10°C / 50°F
Humidity 94%
Altimeter 30.18" Hg
Pressure 1022 hPa
Elevation 14
METAR LFAT 172030Z AUTO 23001KT CAVOK 11/10 Q1022
Observed Flight Rules
Oct-17 @ 20:30 UTC
(20 minutes ago)
VFR
Wind Visibility
230° at 1 knots 10,000+ meters
Clouds
  • Clear skies
Temperature Dewpoint
11°C / 52°F 10°C / 50°F
Humidity Altimeter Pressure
94% 30.18" Hg 1022 hPa